sensor_id;sensor_type;location;lat;lon;timestamp;P1;durP1;ratioP1;P2;durP2;ratioP2
12469;SDS011;36499;46.484;13.832;2023-02-28T00:01:53;14.10;;;10.50;;
12469;SDS011;36499;46.484;13.832;2023-02-28T00:04:20;16.23;;;11.00;;
12469;SDS011;36499;46.484;13.832;2023-02-28T00:06:47;13.33;;;9.90;;
12469;SDS011;36499;46.484;13.832;2023-02-28T00:09:14;15.37;;;10.83;;
12469;SDS011;36499;46.484;13.832;2023-02-28T00:11:42;12.83;;;10.00;;
12469;SDS011;36499;46.484;13.832;2023-02-28T00:14:09;15.90;;;11.10;;
12469;SDS011;36499;46.484;13.832;2023-02-28T00:16:36;15.27;;;10.77;;
12469;SDS011;36499;46.484;13.832;2023-02-28T00:19:03;15.03;;;10.60;;
12469;SDS011;36499;46.484;13.832;2023-02-28T00:21:30;13.83;;;10.00;;
12469;SDS011;36499;46.484;13.832;2023-02-28T00:23:57;13.70;;;10.30;;
12469;SDS011;36499;46.484;13.832;2023-02-28T00:26:24;13.67;;;9.93;;
12469;SDS011;36499;46.484;13.832;2023-02-28T00:28:53;12.73;;;10.23;;
12469;SDS011;36499;46.484;13.832;2023-02-28T00:31:20;11.27;;;9.30;;
12469;SDS011;36499;46.484;13.832;2023-02-28T00:33:47;15.63;;;10.97;;
12469;SDS011;36499;46.484;13.832;2023-02-28T00:36:15;17.20;;;11.10;;
12469;SDS011;36499;46.484;13.832;2023-02-28T00:38:42;13.37;;;10.70;;
12469;SDS011;36499;46.484;13.832;2023-02-28T00:41:10;16.63;;;11.63;;
12469;SDS011;36499;46.484;13.832;2023-02-28T00:43:37;17.30;;;12.57;;
12469;SDS011;36499;46.484;13.832;2023-02-28T00:46:06;15.10;;;11.07;;
12469;SDS011;36499;46.484;13.832;2023-02-28T00:48:34;14.23;;;10.90;;
12469;SDS011;36499;46.484;13.832;2023-02-28T00:51:02;14.03;;;10.33;;
12469;SDS011;36499;46.484;13.832;2023-02-28T00:53:29;13.60;;;10.50;;
12469;SDS011;36499;46.484;13.832;2023-02-28T00:55:57;15.87;;;10.47;;
12469;SDS011;36499;46.484;13.832;2023-02-28T00:58:24;14.13;;;9.73;;
12469;SDS011;36499;46.484;13.832;2023-02-28T01:00:52;14.03;;;10.40;;
12469;SDS011;36499;46.484;13.832;2023-02-28T01:03:21;17.53;;;10.70;;
12469;SDS011;36499;46.484;13.832;2023-02-28T01:05:49;13.27;;;10.03;;
12469;SDS011;36499;46.484;13.832;2023-02-28T01:08:18;16.07;;;10.77;;
12469;SDS011;36499;46.484;13.832;2023-02-28T01:10:45;12.33;;;9.60;;
12469;SDS011;36499;46.484;13.832;2023-02-28T01:13:12;14.80;;;10.40;;
12469;SDS011;36499;46.484;13.832;2023-02-28T01:15:40;16.03;;;9.83;;
12469;SDS011;36499;46.484;13.832;2023-02-28T01:18:15;14.63;;;10.40;;
12469;SDS011;36499;46.484;13.832;2023-02-28T01:20:43;9.23;;;7.97;;
12469;SDS011;36499;46.484;13.832;2023-02-28T01:23:11;8.83;;;6.83;;
12469;SDS011;36499;46.484;13.832;2023-02-28T01:25:38;7.23;;;5.27;;
12469;SDS011;36499;46.484;13.832;2023-02-28T01:28:05;6.87;;;5.23;;
12469;SDS011;36499;46.484;13.832;2023-02-28T01:30:32;8.43;;;5.93;;
12469;SDS011;36499;46.484;13.832;2023-02-28T01:33:00;14.60;;;6.57;;
12469;SDS011;36499;46.484;13.832;2023-02-28T01:35:27;8.43;;;5.70;;
12469;SDS011;36499;46.484;13.832;2023-02-28T01:37:56;9.87;;;6.10;;
12469;SDS011;36499;46.484;13.832;2023-02-28T01:40:23;9.23;;;5.70;;
12469;SDS011;36499;46.484;13.832;2023-02-28T01:42:50;6.03;;;5.23;;
12469;SDS011;36499;46.484;13.832;2023-02-28T01:45:19;7.07;;;5.43;;
12469;SDS011;36499;46.484;13.832;2023-02-28T01:47:52;7.80;;;4.97;;
12469;SDS011;36499;46.484;13.832;2023-02-28T01:50:23;9.27;;;5.83;;
12469;SDS011;36499;46.484;13.832;2023-02-28T01:52:58;9.83;;;5.73;;
12469;SDS011;36499;46.484;13.832;2023-02-28T01:55:30;9.23;;;5.67;;
12469;SDS011;36499;46.484;13.832;2023-02-28T01:58:00;6.87;;;5.93;;
12469;SDS011;36499;46.484;13.832;2023-02-28T02:00:34;6.80;;;5.43;;
12469;SDS011;36499;46.484;13.832;2023-02-28T02:03:05;6.90;;;5.63;;
12469;SDS011;36499;46.484;13.832;2023-02-28T02:05:37;6.90;;;5.27;;
12469;SDS011;36499;46.484;13.832;2023-02-28T02:08:09;8.53;;;6.00;;
12469;SDS011;36499;46.484;13.832;2023-02-28T02:10:39;8.47;;;6.53;;
12469;SDS011;36499;46.484;13.832;2023-02-28T02:13:19;8.23;;;6.00;;
12469;SDS011;36499;46.484;13.832;2023-02-28T02:16:18;7.40;;;5.37;;
12469;SDS011;36499;46.484;13.832;2023-02-28T02:19:01;6.90;;;5.90;;
12469;SDS011;36499;46.484;13.832;2023-02-28T02:21:59;8.10;;;6.30;;
12469;SDS011;36499;46.484;13.832;2023-02-28T02:25:11;7.87;;;5.93;;
12469;SDS011;36499;46.484;13.832;2023-02-28T02:28:07;7.93;;;6.43;;
12469;SDS011;36499;46.484;13.832;2023-02-28T02:31:06;6.57;;;5.60;;
12469;SDS011;36499;46.484;13.832;2023-02-28T02:34:28;6.87;;;5.50;;
12469;SDS011;36499;46.484;13.832;2023-02-28T02:37:15;10.67;;;6.07;;
12469;SDS011;36499;46.484;13.832;2023-02-28T02:39:58;7.60;;;5.43;;
12469;SDS011;36499;46.484;13.832;2023-02-28T02:42:39;9.70;;;6.27;;
12469;SDS011;36499;46.484;13.832;2023-02-28T02:45:15;7.37;;;5.80;;
12469;SDS011;36499;46.484;13.832;2023-02-28T02:47:50;8.43;;;5.87;;
12469;SDS011;36499;46.484;13.832;2023-02-28T02:50:21;9.17;;;6.07;;
12469;SDS011;36499;46.484;13.832;2023-02-28T02:52:56;8.10;;;6.00;;
12469;SDS011;36499;46.484;13.832;2023-02-28T02:55:28;9.63;;;6.83;;
12469;SDS011;36499;46.484;13.832;2023-02-28T02:58:04;12.47;;;6.00;;
12469;SDS011;36499;46.484;13.832;2023-02-28T03:00:37;8.83;;;6.50;;
12469;SDS011;36499;46.484;13.832;2023-02-28T03:03:09;10.80;;;6.47;;
12469;SDS011;36499;46.484;13.832;2023-02-28T03:05:44;7.97;;;6.13;;
12469;SDS011;36499;46.484;13.832;2023-02-28T03:08:15;9.17;;;6.13;;
12469;SDS011;36499;46.484;13.832;2023-02-28T03:10:43;8.17;;;5.97;;
12469;SDS011;36499;46.484;13.832;2023-02-28T03:13:19;10.23;;;6.20;;
12469;SDS011;36499;46.484;13.832;2023-02-28T03:16:22;8.70;;;5.87;;
12469;SDS011;36499;46.484;13.832;2023-02-28T03:22:07;8.33;;;6.30;;
12469;SDS011;36499;46.484;13.832;2023-02-28T03:25:00;8.87;;;6.17;;
12469;SDS011;36499;46.484;13.832;2023-02-28T03:27:35;8.43;;;6.23;;
12469;SDS011;36499;46.484;13.832;2023-02-28T03:30:09;6.50;;;5.90;;
12469;SDS011;36499;46.484;13.832;2023-02-28T03:32:50;9.47;;;6.53;;
12469;SDS011;36499;46.484;13.832;2023-02-28T03:35:23;8.53;;;6.00;;
12469;SDS011;36499;46.484;13.832;2023-02-28T03:38:00;8.80;;;6.07;;
12469;SDS011;36499;46.484;13.832;2023-02-28T03:40:39;9.77;;;6.00;;
12469;SDS011;36499;46.484;13.832;2023-02-28T03:43:14;8.30;;;6.30;;
12469;SDS011;36499;46.484;13.832;2023-02-28T03:45:48;8.93;;;6.70;;
12469;SDS011;36499;46.484;13.832;2023-02-28T03:48:19;9.40;;;6.70;;
12469;SDS011;36499;46.484;13.832;2023-02-28T03:50:52;9.80;;;6.53;;
12469;SDS011;36499;46.484;13.832;2023-02-28T03:53:27;9.87;;;7.10;;
12469;SDS011;36499;46.484;13.832;2023-02-28T03:56:01;9.47;;;6.63;;
12469;SDS011;36499;46.484;13.832;2023-02-28T03:58:37;11.73;;;7.00;;
12469;SDS011;36499;46.484;13.832;2023-02-28T04:01:14;9.53;;;6.67;;
12469;SDS011;36499;46.484;13.832;2023-02-28T04:03:47;9.47;;;6.90;;
12469;SDS011;36499;46.484;13.832;2023-02-28T04:06:17;7.97;;;6.70;;
12469;SDS011;36499;46.484;13.832;2023-02-28T04:08:48;10.40;;;7.30;;
12469;SDS011;36499;46.484;13.832;2023-02-28T04:11:18;7.90;;;6.33;;
12469;SDS011;36499;46.484;13.832;2023-02-28T04:13:49;8.60;;;6.87;;
12469;SDS011;36499;46.484;13.832;2023-02-28T04:16:17;10.00;;;7.03;;
12469;SDS011;36499;46.484;13.832;2023-02-28T04:18:45;11.20;;;7.00;;
12469;SDS011;36499;46.484;13.832;2023-02-28T04:21:12;11.67;;;7.63;;
12469;SDS011;36499;46.484;13.832;2023-02-28T04:23:39;9.33;;;6.90;;
12469;SDS011;36499;46.484;13.832;2023-02-28T04:26:08;12.33;;;7.33;;
12469;SDS011;36499;46.484;13.832;2023-02-28T04:28:36;9.57;;;7.27;;
12469;SDS011;36499;46.484;13.832;2023-02-28T04:31:04;9.43;;;7.07;;
12469;SDS011;36499;46.484;13.832;2023-02-28T04:33:32;11.13;;;7.43;;
12469;SDS011;36499;46.484;13.832;2023-02-28T04:35:59;11.27;;;7.27;;
12469;SDS011;36499;46.484;13.832;2023-02-28T04:38:29;8.70;;;6.70;;
12469;SDS011;36499;46.484;13.832;2023-02-28T04:40:56;9.57;;;7.03;;
12469;SDS011;36499;46.484;13.832;2023-02-28T04:43:26;9.10;;;7.20;;
12469;SDS011;36499;46.484;13.832;2023-02-28T04:45:54;13.63;;;7.37;;
12469;SDS011;36499;46.484;13.832;2023-02-28T04:48:23;11.83;;;7.03;;
12469;SDS011;36499;46.484;13.832;2023-02-28T04:50:51;11.80;;;8.20;;
12469;SDS011;36499;46.484;13.832;2023-02-28T04:53:18;13.40;;;7.90;;
12469;SDS011;36499;46.484;13.832;2023-02-28T04:55:46;10.57;;;7.70;;
12469;SDS011;36499;46.484;13.832;2023-02-28T04:58:13;10.27;;;7.47;;
12469;SDS011;36499;46.484;13.832;2023-02-28T05:00:42;11.57;;;7.80;;
12469;SDS011;36499;46.484;13.832;2023-02-28T05:03:09;12.07;;;8.10;;
12469;SDS011;36499;46.484;13.832;2023-02-28T05:05:36;9.17;;;7.50;;
12469;SDS011;36499;46.484;13.832;2023-02-28T05:08:04;10.50;;;6.93;;
12469;SDS011;36499;46.484;13.832;2023-02-28T05:10:31;12.53;;;7.47;;
12469;SDS011;36499;46.484;13.832;2023-02-28T05:12:58;13.77;;;7.77;;
12469;SDS011;36499;46.484;13.832;2023-02-28T05:15:25;9.83;;;6.60;;
12469;SDS011;36499;46.484;13.832;2023-02-28T05:17:53;11.50;;;7.57;;
12469;SDS011;36499;46.484;13.832;2023-02-28T05:20:20;13.60;;;7.27;;
12469;SDS011;36499;46.484;13.832;2023-02-28T05:22:47;12.83;;;7.37;;
12469;SDS011;36499;46.484;13.832;2023-02-28T05:25:17;10.43;;;7.07;;
12469;SDS011;36499;46.484;13.832;2023-02-28T05:27:47;9.50;;;6.67;;
12469;SDS011;36499;46.484;13.832;2023-02-28T05:30:15;10.10;;;7.30;;
12469;SDS011;36499;46.484;13.832;2023-02-28T05:32:42;9.77;;;7.43;;
12469;SDS011;36499;46.484;13.832;2023-02-28T05:35:11;9.17;;;7.33;;
12469;SDS011;36499;46.484;13.832;2023-02-28T05:37:38;8.03;;;6.77;;
12469;SDS011;36499;46.484;13.832;2023-02-28T05:40:06;8.73;;;6.40;;
12469;SDS011;36499;46.484;13.832;2023-02-28T05:42:36;12.20;;;6.83;;
12469;SDS011;36499;46.484;13.832;2023-02-28T05:45:04;11.47;;;7.43;;
12469;SDS011;36499;46.484;13.832;2023-02-28T05:47:33;14.27;;;7.07;;
12469;SDS011;36499;46.484;13.832;2023-02-28T05:50:01;11.77;;;7.97;;
12469;SDS011;36499;46.484;13.832;2023-02-28T05:52:30;10.73;;;8.17;;
12469;SDS011;36499;46.484;13.832;2023-02-28T05:54:57;10.13;;;7.10;;
12469;SDS011;36499;46.484;13.832;2023-02-28T05:57:24;11.70;;;7.03;;
12469;SDS011;36499;46.484;13.832;2023-02-28T05:59:51;8.93;;;6.43;;
12469;SDS011;36499;46.484;13.832;2023-02-28T06:02:18;11.30;;;7.40;;
12469;SDS011;36499;46.484;13.832;2023-02-28T06:04:46;9.40;;;7.70;;
12469;SDS011;36499;46.484;13.832;2023-02-28T06:07:13;10.90;;;6.43;;
12469;SDS011;36499;46.484;13.832;2023-02-28T06:09:41;9.97;;;6.63;;
12469;SDS011;36499;46.484;13.832;2023-02-28T06:12:09;11.20;;;7.43;;
12469;SDS011;36499;46.484;13.832;2023-02-28T06:14:36;10.10;;;6.83;;
12469;SDS011;36499;46.484;13.832;2023-02-28T06:17:03;11.50;;;6.60;;
12469;SDS011;36499;46.484;13.832;2023-02-28T06:19:30;8.07;;;6.43;;
12469;SDS011;36499;46.484;13.832;2023-02-28T06:21:58;10.40;;;6.93;;
12469;SDS011;36499;46.484;13.832;2023-02-28T06:24:25;12.70;;;7.40;;
12469;SDS011;36499;46.484;13.832;2023-02-28T06:26:55;14.33;;;7.70;;
12469;SDS011;36499;46.484;13.832;2023-02-28T06:29:23;10.83;;;6.50;;
12469;SDS011;36499;46.484;13.832;2023-02-28T06:31:51;19.97;;;9.77;;
12469;SDS011;36499;46.484;13.832;2023-02-28T06:34:18;22.57;;;12.40;;
12469;SDS011;36499;46.484;13.832;2023-02-28T06:36:45;27.47;;;13.83;;
12469;SDS011;36499;46.484;13.832;2023-02-28T06:39:12;13.70;;;9.00;;
12469;SDS011;36499;46.484;13.832;2023-02-28T06:41:39;10.43;;;7.37;;
12469;SDS011;36499;46.484;13.832;2023-02-28T06:44:12;10.77;;;7.50;;
12469;SDS011;36499;46.484;13.832;2023-02-28T06:46:40;11.07;;;7.30;;
12469;SDS011;36499;46.484;13.832;2023-02-28T06:49:08;12.37;;;8.07;;
12469;SDS011;36499;46.484;13.832;2023-02-28T06:51:35;11.63;;;7.53;;
12469;SDS011;36499;46.484;13.832;2023-02-28T06:54:05;15.13;;;10.13;;
12469;SDS011;36499;46.484;13.832;2023-02-28T06:56:34;14.27;;;8.03;;
12469;SDS011;36499;46.484;13.832;2023-02-28T06:59:01;10.63;;;7.43;;
12469;SDS011;36499;46.484;13.832;2023-02-28T07:01:30;11.50;;;8.07;;
12469;SDS011;36499;46.484;13.832;2023-02-28T07:03:58;12.77;;;8.10;;
12469;SDS011;36499;46.484;13.832;2023-02-28T07:06:26;16.93;;;10.33;;
12469;SDS011;36499;46.484;13.832;2023-02-28T07:08:53;26.80;;;15.17;;
12469;SDS011;36499;46.484;13.832;2023-02-28T07:11:21;14.83;;;10.20;;
12469;SDS011;36499;46.484;13.832;2023-02-28T07:13:50;20.73;;;14.03;;
12469;SDS011;36499;46.484;13.832;2023-02-28T07:16:17;24.07;;;15.13;;
12469;SDS011;36499;46.484;13.832;2023-02-28T07:18:46;15.30;;;10.70;;
12469;SDS011;36499;46.484;13.832;2023-02-28T07:21:14;22.77;;;14.97;;
12469;SDS011;36499;46.484;13.832;2023-02-28T07:23:42;27.70;;;19.40;;
12469;SDS011;36499;46.484;13.832;2023-02-28T07:26:10;18.03;;;12.53;;
12469;SDS011;36499;46.484;13.832;2023-02-28T07:28:40;33.93;;;19.83;;
12469;SDS011;36499;46.484;13.832;2023-02-28T07:31:08;20.60;;;12.80;;
12469;SDS011;36499;46.484;13.832;2023-02-28T07:33:36;32.00;;;18.50;;
12469;SDS011;36499;46.484;13.832;2023-02-28T07:36:06;13.27;;;9.30;;
12469;SDS011;36499;46.484;13.832;2023-02-28T07:38:38;25.97;;;16.43;;
12469;SDS011;36499;46.484;13.832;2023-02-28T07:41:05;39.13;;;24.77;;
12469;SDS011;36499;46.484;13.832;2023-02-28T07:43:33;18.40;;;11.53;;
12469;SDS011;36499;46.484;13.832;2023-02-28T07:46:02;19.80;;;13.17;;
12469;SDS011;36499;46.484;13.832;2023-02-28T07:48:31;82.63;;;44.57;;
12469;SDS011;36499;46.484;13.832;2023-02-28T07:50:58;75.50;;;40.00;;
12469;SDS011;36499;46.484;13.832;2023-02-28T07:53:28;14.00;;;7.17;;
12469;SDS011;36499;46.484;13.832;2023-02-28T07:55:56;13.17;;;7.57;;
12469;SDS011;36499;46.484;13.832;2023-02-28T07:58:24;10.00;;;6.67;;
12469;SDS011;36499;46.484;13.832;2023-02-28T08:00:52;9.80;;;6.47;;
12469;SDS011;36499;46.484;13.832;2023-02-28T08:03:20;12.23;;;7.00;;
12469;SDS011;36499;46.484;13.832;2023-02-28T08:05:49;10.77;;;6.63;;
12469;SDS011;36499;46.484;13.832;2023-02-28T08:08:17;9.03;;;6.70;;
12469;SDS011;36499;46.484;13.832;2023-02-28T08:10:46;10.70;;;6.40;;
12469;SDS011;36499;46.484;13.832;2023-02-28T08:13:13;10.40;;;6.97;;
12469;SDS011;36499;46.484;13.832;2023-02-28T08:15:40;10.23;;;6.60;;
12469;SDS011;36499;46.484;13.832;2023-02-28T08:18:08;15.87;;;6.83;;
12469;SDS011;36499;46.484;13.832;2023-02-28T08:20:35;9.70;;;6.93;;
12469;SDS011;36499;46.484;13.832;2023-02-28T08:23:02;13.83;;;7.43;;
12469;SDS011;36499;46.484;13.832;2023-02-28T08:25:29;14.33;;;7.17;;
12469;SDS011;36499;46.484;13.832;2023-02-28T08:27:58;10.73;;;7.40;;
12469;SDS011;36499;46.484;13.832;2023-02-28T08:30:25;10.50;;;6.90;;
12469;SDS011;36499;46.484;13.832;2023-02-28T08:32:52;9.90;;;7.00;;
12469;SDS011;36499;46.484;13.832;2023-02-28T08:35:19;11.50;;;7.53;;
12469;SDS011;36499;46.484;13.832;2023-02-28T08:37:47;11.77;;;7.13;;
12469;SDS011;36499;46.484;13.832;2023-02-28T08:40:15;12.40;;;7.10;;
12469;SDS011;36499;46.484;13.832;2023-02-28T08:42:43;10.50;;;7.13;;
12469;SDS011;36499;46.484;13.832;2023-02-28T08:45:12;10.47;;;6.63;;
12469;SDS011;36499;46.484;13.832;2023-02-28T08:47:40;12.90;;;6.60;;
12469;SDS011;36499;46.484;13.832;2023-02-28T08:50:08;9.63;;;6.77;;
12469;SDS011;36499;46.484;13.832;2023-02-28T08:52:36;11.70;;;7.93;;
12469;SDS011;36499;46.484;13.832;2023-02-28T08:55:04;31.77;;;16.50;;
12469;SDS011;36499;46.484;13.832;2023-02-28T08:57:32;13.10;;;7.83;;
12469;SDS011;36499;46.484;13.832;2023-02-28T08:59:59;12.27;;;7.47;;
12469;SDS011;36499;46.484;13.832;2023-02-28T09:02:30;13.63;;;9.13;;
12469;SDS011;36499;46.484;13.832;2023-02-28T09:04:57;15.17;;;9.30;;
12469;SDS011;36499;46.484;13.832;2023-02-28T09:07:25;9.40;;;6.43;;
12469;SDS011;36499;46.484;13.832;2023-02-28T09:09:52;13.07;;;9.27;;
12469;SDS011;36499;46.484;13.832;2023-02-28T09:12:23;10.07;;;6.53;;
12469;SDS011;36499;46.484;13.832;2023-02-28T09:14:51;10.60;;;6.90;;
12469;SDS011;36499;46.484;13.832;2023-02-28T09:17:19;9.80;;;7.27;;
12469;SDS011;36499;46.484;13.832;2023-02-28T09:19:48;8.53;;;6.83;;
12469;SDS011;36499;46.484;13.832;2023-02-28T09:22:15;13.63;;;7.40;;
12469;SDS011;36499;46.484;13.832;2023-02-28T09:24:43;8.70;;;6.37;;
12469;SDS011;36499;46.484;13.832;2023-02-28T09:27:10;11.77;;;6.20;;
12469;SDS011;36499;46.484;13.832;2023-02-28T09:29:37;10.23;;;7.00;;
12469;SDS011;36499;46.484;13.832;2023-02-28T09:32:04;10.00;;;7.70;;
12469;SDS011;36499;46.484;13.832;2023-02-28T09:34:32;11.83;;;8.63;;
12469;SDS011;36499;46.484;13.832;2023-02-28T09:37:00;10.57;;;8.40;;
12469;SDS011;36499;46.484;13.832;2023-02-28T09:39:27;12.67;;;8.90;;
12469;SDS011;36499;46.484;13.832;2023-02-28T09:41:54;14.33;;;9.60;;
12469;SDS011;36499;46.484;13.832;2023-02-28T09:44:26;13.30;;;8.77;;
12469;SDS011;36499;46.484;13.832;2023-02-28T09:47:01;14.77;;;9.40;;
12469;SDS011;36499;46.484;13.832;2023-02-28T09:49:39;14.13;;;9.10;;
12469;SDS011;36499;46.484;13.832;2023-02-28T09:52:13;11.03;;;8.00;;
12469;SDS011;36499;46.484;13.832;2023-02-28T09:54:47;18.93;;;11.17;;
12469;SDS011;36499;46.484;13.832;2023-02-28T09:57:16;15.60;;;8.80;;
12469;SDS011;36499;46.484;13.832;2023-02-28T10:00:01;14.80;;;10.17;;
12469;SDS011;36499;46.484;13.832;2023-02-28T10:02:51;17.00;;;10.53;;
12469;SDS011;36499;46.484;13.832;2023-02-28T10:05:33;14.53;;;7.93;;
12469;SDS011;36499;46.484;13.832;2023-02-28T10:08:09;16.10;;;10.77;;
12469;SDS011;36499;46.484;13.832;2023-02-28T10:10:41;16.33;;;10.13;;
12469;SDS011;36499;46.484;13.832;2023-02-28T10:13:13;15.20;;;9.50;;
12469;SDS011;36499;46.484;13.832;2023-02-28T10:15:51;18.67;;;11.67;;
12469;SDS011;36499;46.484;13.832;2023-02-28T10:18:24;28.03;;;14.57;;
12469;SDS011;36499;46.484;13.832;2023-02-28T10:20:57;14.73;;;8.67;;
12469;SDS011;36499;46.484;13.832;2023-02-28T10:23:28;9.80;;;6.80;;
12469;SDS011;36499;46.484;13.832;2023-02-28T10:26:01;12.83;;;8.40;;
12469;SDS011;36499;46.484;13.832;2023-02-28T10:28:37;23.17;;;13.57;;
12469;SDS011;36499;46.484;13.832;2023-02-28T10:31:06;9.93;;;6.20;;
12469;SDS011;36499;46.484;13.832;2023-02-28T10:33:41;14.53;;;9.97;;
12469;SDS011;36499;46.484;13.832;2023-02-28T10:36:10;14.30;;;9.30;;
12469;SDS011;36499;46.484;13.832;2023-02-28T10:38:44;14.33;;;8.53;;
12469;SDS011;36499;46.484;13.832;2023-02-28T10:41:14;11.40;;;6.53;;
12469;SDS011;36499;46.484;13.832;2023-02-28T10:43:43;11.77;;;6.90;;
12469;SDS011;36499;46.484;13.832;2023-02-28T10:46:12;8.80;;;6.23;;
12469;SDS011;36499;46.484;13.832;2023-02-28T10:48:58;10.53;;;6.27;;
12469;SDS011;36499;46.484;13.832;2023-02-28T10:51:34;8.97;;;6.50;;
12469;SDS011;36499;46.484;13.832;2023-02-28T10:54:06;9.17;;;6.07;;
12469;SDS011;36499;46.484;13.832;2023-02-28T10:56:42;12.77;;;9.10;;
12469;SDS011;36499;46.484;13.832;2023-02-28T10:59:26;9.40;;;6.83;;
12469;SDS011;36499;46.484;13.832;2023-02-28T11:01:56;9.63;;;6.30;;
12469;SDS011;36499;46.484;13.832;2023-02-28T11:04:32;9.50;;;6.37;;
12469;SDS011;36499;46.484;13.832;2023-02-28T11:07:05;13.90;;;8.77;;
12469;SDS011;36499;46.484;13.832;2023-02-28T11:09:46;8.47;;;5.97;;
12469;SDS011;36499;46.484;13.832;2023-02-28T11:12:22;10.57;;;7.00;;
12469;SDS011;36499;46.484;13.832;2023-02-28T11:14:54;8.63;;;6.30;;
12469;SDS011;36499;46.484;13.832;2023-02-28T11:17:26;10.17;;;6.57;;
12469;SDS011;36499;46.484;13.832;2023-02-28T11:19:57;11.10;;;6.50;;
12469;SDS011;36499;46.484;13.832;2023-02-28T11:22:29;10.00;;;6.33;;
12469;SDS011;36499;46.484;13.832;2023-02-28T11:25:06;7.93;;;5.90;;
12469;SDS011;36499;46.484;13.832;2023-02-28T11:27:44;8.17;;;5.93;;
12469;SDS011;36499;46.484;13.832;2023-02-28T11:30:25;9.67;;;6.57;;
12469;SDS011;36499;46.484;13.832;2023-02-28T11:32:56;9.53;;;6.30;;
12469;SDS011;36499;46.484;13.832;2023-02-28T11:35:24;7.37;;;6.23;;
12469;SDS011;36499;46.484;13.832;2023-02-28T11:37:56;8.23;;;5.90;;
12469;SDS011;36499;46.484;13.832;2023-02-28T11:40:28;11.63;;;6.20;;
12469;SDS011;36499;46.484;13.832;2023-02-28T11:43:06;8.77;;;5.73;;
12469;SDS011;36499;46.484;13.832;2023-02-28T11:45:58;12.27;;;7.00;;
12469;SDS011;36499;46.484;13.832;2023-02-28T11:48:41;11.27;;;6.80;;
12469;SDS011;36499;46.484;13.832;2023-02-28T11:51:23;8.83;;;6.57;;
12469;SDS011;36499;46.484;13.832;2023-02-28T11:54:02;9.83;;;6.37;;
12469;SDS011;36499;46.484;13.832;2023-02-28T11:56:51;10.70;;;7.00;;
12469;SDS011;36499;46.484;13.832;2023-02-28T11:59:29;11.50;;;6.53;;
12469;SDS011;36499;46.484;13.832;2023-02-28T12:02:20;9.37;;;6.20;;
12469;SDS011;36499;46.484;13.832;2023-02-28T12:07:50;8.77;;;6.00;;
12469;SDS011;36499;46.484;13.832;2023-02-28T12:10:30;8.60;;;6.23;;
12469;SDS011;36499;46.484;13.832;2023-02-28T12:13:12;10.53;;;7.37;;
12469;SDS011;36499;46.484;13.832;2023-02-28T12:19:16;10.40;;;6.80;;
12469;SDS011;36499;46.484;13.832;2023-02-28T12:21:55;11.03;;;6.90;;
12469;SDS011;36499;46.484;13.832;2023-02-28T12:24:55;10.37;;;7.57;;
12469;SDS011;36499;46.484;13.832;2023-02-28T12:28:13;10.70;;;6.77;;
12469;SDS011;36499;46.484;13.832;2023-02-28T12:30:53;14.40;;;6.67;;
12469;SDS011;36499;46.484;13.832;2023-02-28T12:33:28;11.67;;;6.63;;
12469;SDS011;36499;46.484;13.832;2023-02-28T12:36:03;15.80;;;7.17;;
12469;SDS011;36499;46.484;13.832;2023-02-28T12:38:38;10.50;;;7.03;;
12469;SDS011;36499;46.484;13.832;2023-02-28T12:41:11;13.33;;;7.30;;
12469;SDS011;36499;46.484;13.832;2023-02-28T12:43:46;17.27;;;10.47;;
12469;SDS011;36499;46.484;13.832;2023-02-28T12:46:22;40.63;;;19.07;;
12469;SDS011;36499;46.484;13.832;2023-02-28T12:48:57;28.80;;;16.13;;
12469;SDS011;36499;46.484;13.832;2023-02-28T12:51:31;20.10;;;11.20;;
12469;SDS011;36499;46.484;13.832;2023-02-28T12:54:04;12.37;;;7.70;;
12469;SDS011;36499;46.484;13.832;2023-02-28T12:56:47;19.40;;;11.73;;
12469;SDS011;36499;46.484;13.832;2023-02-28T12:59:25;10.40;;;6.53;;
12469;SDS011;36499;46.484;13.832;2023-02-28T13:02:09;11.10;;;6.93;;
12469;SDS011;36499;46.484;13.832;2023-02-28T13:11:29;11.40;;;7.20;;
12469;SDS011;36499;46.484;13.832;2023-02-28T13:14:00;12.43;;;8.07;;
12469;SDS011;36499;46.484;13.832;2023-02-28T13:16:50;11.37;;;7.43;;
12469;SDS011;36499;46.484;13.832;2023-02-28T13:19:30;11.27;;;6.97;;
12469;SDS011;36499;46.484;13.832;2023-02-28T13:22:00;9.43;;;6.87;;
12469;SDS011;36499;46.484;13.832;2023-02-28T13:24:42;10.00;;;6.37;;
12469;SDS011;36499;46.484;13.832;2023-02-28T13:33:32;23.27;;;10.87;;
12469;SDS011;36499;46.484;13.832;2023-02-28T13:36:07;17.43;;;10.20;;
12469;SDS011;36499;46.484;13.832;2023-02-28T13:38:54;12.43;;;7.40;;
12469;SDS011;36499;46.484;13.832;2023-02-28T13:41:41;13.03;;;8.23;;
12469;SDS011;36499;46.484;13.832;2023-02-28T13:44:14;13.47;;;8.77;;
12469;SDS011;36499;46.484;13.832;2023-02-28T13:49:56;11.83;;;7.77;;
12469;SDS011;36499;46.484;13.832;2023-02-28T13:52:48;10.50;;;7.63;;
12469;SDS011;36499;46.484;13.832;2023-02-28T13:55:42;14.27;;;7.93;;
12469;SDS011;36499;46.484;13.832;2023-02-28T13:58:20;18.93;;;9.50;;
12469;SDS011;36499;46.484;13.832;2023-02-28T14:01:14;17.80;;;9.33;;
12469;SDS011;36499;46.484;13.832;2023-02-28T14:04:04;20.90;;;9.57;;
12469;SDS011;36499;46.484;13.832;2023-02-28T14:06:57;13.53;;;8.00;;
12469;SDS011;36499;46.484;13.832;2023-02-28T14:09:27;11.90;;;7.43;;
12469;SDS011;36499;46.484;13.832;2023-02-28T14:12:10;17.00;;;8.77;;
12469;SDS011;36499;46.484;13.832;2023-02-28T14:15:27;12.63;;;7.50;;
12469;SDS011;36499;46.484;13.832;2023-02-28T14:18:13;13.80;;;8.53;;
12469;SDS011;36499;46.484;13.832;2023-02-28T14:20:49;10.60;;;6.80;;
12469;SDS011;36499;46.484;13.832;2023-02-28T14:23:34;12.40;;;7.50;;
12469;SDS011;36499;46.484;13.832;2023-02-28T14:33:08;11.37;;;7.87;;
12469;SDS011;36499;46.484;13.832;2023-02-28T14:38:42;11.10;;;7.20;;
12469;SDS011;36499;46.484;13.832;2023-02-28T14:41:17;10.37;;;7.47;;
12469;SDS011;36499;46.484;13.832;2023-02-28T14:43:56;9.87;;;6.87;;
12469;SDS011;36499;46.484;13.832;2023-02-28T14:46:26;14.43;;;7.90;;
12469;SDS011;36499;46.484;13.832;2023-02-28T14:49:03;12.93;;;7.53;;
12469;SDS011;36499;46.484;13.832;2023-02-28T14:51:34;16.43;;;7.90;;
12469;SDS011;36499;46.484;13.832;2023-02-28T14:54:03;14.17;;;7.97;;
12469;SDS011;36499;46.484;13.832;2023-02-28T14:56:33;11.50;;;6.80;;
12469;SDS011;36499;46.484;13.832;2023-02-28T14:59:03;13.70;;;7.73;;
12469;SDS011;36499;46.484;13.832;2023-02-28T15:01:47;17.20;;;7.97;;
12469;SDS011;36499;46.484;13.832;2023-02-28T15:04:18;14.40;;;8.70;;
12469;SDS011;36499;46.484;13.832;2023-02-28T15:07:07;12.70;;;8.77;;
12469;SDS011;36499;46.484;13.832;2023-02-28T15:09:36;15.50;;;8.67;;
12469;SDS011;36499;46.484;13.832;2023-02-28T15:12:03;12.63;;;8.87;;
12469;SDS011;36499;46.484;13.832;2023-02-28T15:14:31;12.07;;;8.00;;
12469;SDS011;36499;46.484;13.832;2023-02-28T15:17:06;16.27;;;9.03;;
12469;SDS011;36499;46.484;13.832;2023-02-28T15:19:48;13.77;;;8.10;;
12469;SDS011;36499;46.484;13.832;2023-02-28T15:22:19;14.53;;;8.47;;
12469;SDS011;36499;46.484;13.832;2023-02-28T15:24:56;14.83;;;8.00;;
12469;SDS011;36499;46.484;13.832;2023-02-28T15:27:25;13.77;;;6.87;;
12469;SDS011;36499;46.484;13.832;2023-02-28T15:29:57;19.67;;;7.80;;
12469;SDS011;36499;46.484;13.832;2023-02-28T15:32:31;10.20;;;7.40;;